sensor_id;sensor_type;location;lat;lon;timestamp;temperature;humidity
38263;DHT22;24054;50.128;19.730;2022-09-29T00:02:08;21.90;61.00
38263;DHT22;24054;50.128;19.730;2022-09-29T00:04:35;21.90;61.00
38263;DHT22;24054;50.128;19.730;2022-09-29T00:07:02;21.90;61.00
38263;DHT22;24054;50.128;19.730;2022-09-29T00:09:30;21.90;61.00
38263;DHT22;24054;50.128;19.730;2022-09-29T00:11:57;21.90;61.10
38263;DHT22;24054;50.128;19.730;2022-09-29T00:14:24;21.90;61.10
38263;DHT22;24054;50.128;19.730;2022-09-29T00:16:51;21.90;61.10
38263;DHT22;24054;50.128;19.730;2022-09-29T00:19:18;21.90;61.10
38263;DHT22;24054;50.128;19.730;2022-09-29T00:21:45;21.90;61.10
38263;DHT22;24054;50.128;19.730;2022-09-29T00:24:12;21.90;61.10
38263;DHT22;24054;50.128;19.730;2022-09-29T00:26:41;21.90;61.10
38263;DHT22;24054;50.128;19.730;2022-09-29T00:29:11;21.90;61.10
38263;DHT22;24054;50.128;19.730;2022-09-29T00:31:38;21.90;61.20
38263;DHT22;24054;50.128;19.730;2022-09-29T00:34:05;21.90;61.10
38263;DHT22;24054;50.128;19.730;2022-09-29T00:36:32;21.90;61.20
38263;DHT22;24054;50.128;19.730;2022-09-29T00:38:59;21.90;61.20
38263;DHT22;24054;50.128;19.730;2022-09-29T00:41:29;21.90;61.20
38263;DHT22;24054;50.128;19.730;2022-09-29T00:44:00;21.90;61.20
38263;DHT22;24054;50.128;19.730;2022-09-29T00:46:35;21.90;61.20
38263;DHT22;24054;50.128;19.730;2022-09-29T00:49:06;21.90;61.20
38263;DHT22;24054;50.128;19.730;2022-09-29T00:51:35;21.90;61.30
38263;DHT22;24054;50.128;19.730;2022-09-29T00:54:05;21.80;61.20
38263;DHT22;24054;50.128;19.730;2022-09-29T00:56:34;21.90;61.30
38263;DHT22;24054;50.128;19.730;2022-09-29T00:59:06;21.80;61.20
38263;DHT22;24054;50.128;19.730;2022-09-29T01:01:34;21.90;61.30
38263;DHT22;24054;50.128;19.730;2022-09-29T01:04:04;21.80;61.20
38263;DHT22;24054;50.128;19.730;2022-09-29T01:06:35;21.80;61.20
38263;DHT22;24054;50.128;19.730;2022-09-29T01:09:05;21.90;61.30
38263;DHT22;24054;50.128;19.730;2022-09-29T01:11:32;21.80;61.30
38263;DHT22;24054;50.128;19.730;2022-09-29T01:14:02;21.80;61.30
38263;DHT22;24054;50.128;19.730;2022-09-29T01:16:33;21.90;61.40
38263;DHT22;24054;50.128;19.730;2022-09-29T01:19:02;21.80;61.30
38263;DHT22;24054;50.128;19.730;2022-09-29T01:21:38;21.80;61.30
38263;DHT22;24054;50.128;19.730;2022-09-29T01:24:43;21.80;61.30
38263;DHT22;24054;50.128;19.730;2022-09-29T01:27:24;21.80;61.30
38263;DHT22;24054;50.128;19.730;2022-09-29T01:30:13;21.80;61.40
38263;DHT22;24054;50.128;19.730;2022-09-29T01:33:14;21.80;61.40
38263;DHT22;24054;50.128;19.730;2022-09-29T01:35:51;21.80;61.40
38263;DHT22;24054;50.128;19.730;2022-09-29T01:38:34;21.80;61.40
38263;DHT22;24054;50.128;19.730;2022-09-29T01:41:11;21.80;61.40
38263;DHT22;24054;50.128;19.730;2022-09-29T01:43:47;21.80;61.40
38263;DHT22;24054;50.128;19.730;2022-09-29T01:46:20;21.80;61.40
38263;DHT22;24054;50.128;19.730;2022-09-29T01:48:52;21.80;61.40
38263;DHT22;24054;50.128;19.730;2022-09-29T01:51:26;21.80;61.40
38263;DHT22;24054;50.128;19.730;2022-09-29T01:53:57;21.80;61.40
38263;DHT22;24054;50.128;19.730;2022-09-29T01:56:29;21.80;61.40
38263;DHT22;24054;50.128;19.730;2022-09-29T01:59:03;21.70;61.30
38263;DHT22;24054;50.128;19.730;2022-09-29T02:01:34;21.80;61.40
38263;DHT22;24054;50.128;19.730;2022-09-29T02:04:08;21.80;61.40
38263;DHT22;24054;50.128;19.730;2022-09-29T02:06:40;21.70;61.30
38263;DHT22;24054;50.128;19.730;2022-09-29T02:09:15;21.80;61.40
38263;DHT22;24054;50.128;19.730;2022-09-29T02:11:43;21.70;61.30
38263;DHT22;24054;50.128;19.730;2022-09-29T02:14:14;21.70;61.30
38263;DHT22;24054;50.128;19.730;2022-09-29T02:16:47;21.70;61.30
38263;DHT22;24054;50.128;19.730;2022-09-29T02:19:18;21.80;61.40
38263;DHT22;24054;50.128;19.730;2022-09-29T02:21:46;21.70;61.40
38263;DHT22;24054;50.128;19.730;2022-09-29T02:24:13;21.70;61.30
38263;DHT22;24054;50.128;19.730;2022-09-29T02:26:41;21.70;61.40
38263;DHT22;24054;50.128;19.730;2022-09-29T02:29:10;21.70;61.40
38263;DHT22;24054;50.128;19.730;2022-09-29T02:31:37;21.70;61.40
38263;DHT22;24054;50.128;19.730;2022-09-29T02:34:06;21.70;61.40
38263;DHT22;24054;50.128;19.730;2022-09-29T02:36:40;21.70;61.40
38263;DHT22;24054;50.128;19.730;2022-09-29T02:39:17;21.70;61.40
38263;DHT22;24054;50.128;19.730;2022-09-29T02:41:49;21.70;61.40
38263;DHT22;24054;50.128;19.730;2022-09-29T02:44:27;21.70;61.40
38263;DHT22;24054;50.128;19.730;2022-09-29T02:47:16;21.70;61.40
38263;DHT22;24054;50.128;19.730;2022-09-29T02:50:02;21.70;61.40
38263;DHT22;24054;50.128;19.730;2022-09-29T02:52:41;21.70;61.40
38263;DHT22;24054;50.128;19.730;2022-09-29T02:55:17;21.70;61.40
38263;DHT22;24054;50.128;19.730;2022-09-29T02:57:49;21.70;61.40
38263;DHT22;24054;50.128;19.730;2022-09-29T03:00:17;21.70;61.40
38263;DHT22;24054;50.128;19.730;2022-09-29T03:02:45;21.70;61.40
38263;DHT22;24054;50.128;19.730;2022-09-29T03:05:14;21.70;61.40
38263;DHT22;24054;50.128;19.730;2022-09-29T03:07:43;21.70;61.40
38263;DHT22;24054;50.128;19.730;2022-09-29T03:10:11;21.70;61.40
38263;DHT22;24054;50.128;19.730;2022-09-29T03:12:38;21.60;61.40
38263;DHT22;24054;50.128;19.730;2022-09-29T03:15:06;21.70;61.40
38263;DHT22;24054;50.128;19.730;2022-09-29T03:17:34;21.70;61.40
38263;DHT22;24054;50.128;19.730;2022-09-29T03:20:01;21.60;61.40
38263;DHT22;24054;50.128;19.730;2022-09-29T03:22:28;21.60;61.40
38263;DHT22;24054;50.128;19.730;2022-09-29T03:24:57;21.60;61.40
38263;DHT22;24054;50.128;19.730;2022-09-29T03:27:24;21.60;61.30
38263;DHT22;24054;50.128;19.730;2022-09-29T03:29:50;21.60;61.40
38263;DHT22;24054;50.128;19.730;2022-09-29T03:32:18;21.60;61.30
38263;DHT22;24054;50.128;19.730;2022-09-29T03:34:44;21.60;61.30
38263;DHT22;24054;50.128;19.730;2022-09-29T03:37:11;21.60;61.30
38263;DHT22;24054;50.128;19.730;2022-09-29T03:39:38;21.60;61.30
38263;DHT22;24054;50.128;19.730;2022-09-29T03:42:07;21.60;61.30
38263;DHT22;24054;50.128;19.730;2022-09-29T03:44:34;21.70;61.40
38263;DHT22;24054;50.128;19.730;2022-09-29T03:47:01;21.60;61.30
38263;DHT22;24054;50.128;19.730;2022-09-29T03:49:28;21.60;61.30
38263;DHT22;24054;50.128;19.730;2022-09-29T03:51:54;21.60;61.30
38263;DHT22;24054;50.128;19.730;2022-09-29T03:54:21;21.60;61.30
38263;DHT22;24054;50.128;19.730;2022-09-29T03:56:51;21.60;61.30
38263;DHT22;24054;50.128;19.730;2022-09-29T03:59:19;21.60;61.30
38263;DHT22;24054;50.128;19.730;2022-09-29T04:01:46;21.60;61.40
38263;DHT22;24054;50.128;19.730;2022-09-29T04:04:13;21.60;61.40
38263;DHT22;24054;50.128;19.730;2022-09-29T04:06:40;21.60;61.30
38263;DHT22;24054;50.128;19.730;2022-09-29T04:09:07;21.60;61.30
38263;DHT22;24054;50.128;19.730;2022-09-29T04:11:34;21.60;61.30
38263;DHT22;24054;50.128;19.730;2022-09-29T04:14:02;21.60;61.30
38263;DHT22;24054;50.128;19.730;2022-09-29T04:16:30;21.60;61.30
38263;DHT22;24054;50.128;19.730;2022-09-29T04:18:57;21.60;61.30
38263;DHT22;24054;50.128;19.730;2022-09-29T04:21:24;21.50;61.30
38263;DHT22;24054;50.128;19.730;2022-09-29T04:23:51;21.50;61.30
38263;DHT22;24054;50.128;19.730;2022-09-29T04:26:18;21.50;61.30
38263;DHT22;24054;50.128;19.730;2022-09-29T04:28:46;21.50;61.30
38263;DHT22;24054;50.128;19.730;2022-09-29T04:31:13;21.50;61.30
38263;DHT22;24054;50.128;19.730;2022-09-29T04:33:41;21.50;61.30
38263;DHT22;24054;50.128;19.730;2022-09-29T04:36:08;21.60;61.30
38263;DHT22;24054;50.128;19.730;2022-09-29T04:38:35;21.50;61.30
38263;DHT22;24054;50.128;19.730;2022-09-29T04:41:02;21.50;61.30
38263;DHT22;24054;50.128;19.730;2022-09-29T04:43:29;21.60;61.40
38263;DHT22;24054;50.128;19.730;2022-09-29T04:46:04;21.60;61.30
38263;DHT22;24054;50.128;19.730;2022-09-29T04:48:31;21.50;61.30
38263;DHT22;24054;50.128;19.730;2022-09-29T04:50:59;21.50;61.30
38263;DHT22;24054;50.128;19.730;2022-09-29T04:53:27;21.50;61.30
38263;DHT22;24054;50.128;19.730;2022-09-29T04:55:54;21.50;61.30
38263;DHT22;24054;50.128;19.730;2022-09-29T04:58:21;21.60;61.40
38263;DHT22;24054;50.128;19.730;2022-09-29T05:00:48;21.50;61.30
38263;DHT22;24054;50.128;19.730;2022-09-29T05:03:14;21.50;61.30
38263;DHT22;24054;50.128;19.730;2022-09-29T05:05:42;21.60;61.40
38263;DHT22;24054;50.128;19.730;2022-09-29T05:08:10;21.50;61.30
38263;DHT22;24054;50.128;19.730;2022-09-29T05:10:37;21.50;61.30
38263;DHT22;24054;50.128;19.730;2022-09-29T05:13:04;21.50;61.30
38263;DHT22;24054;50.128;19.730;2022-09-29T05:15:31;21.50;61.30
38263;DHT22;24054;50.128;19.730;2022-09-29T05:18:00;21.50;61.30
38263;DHT22;24054;50.128;19.730;2022-09-29T05:20:28;21.50;61.30
38263;DHT22;24054;50.128;19.730;2022-09-29T05:22:57;21.50;61.30
38263;DHT22;24054;50.128;19.730;2022-09-29T05:25:26;21.50;61.30
38263;DHT22;24054;50.128;19.730;2022-09-29T05:27:53;21.50;61.30
38263;DHT22;24054;50.128;19.730;2022-09-29T05:30:20;21.50;61.30
38263;DHT22;24054;50.128;19.730;2022-09-29T05:32:50;21.50;61.30
38263;DHT22;24054;50.128;19.730;2022-09-29T05:35:17;21.50;61.30
38263;DHT22;24054;50.128;19.730;2022-09-29T05:37:45;21.50;61.30
38263;DHT22;24054;50.128;19.730;2022-09-29T05:40:12;21.50;61.30
38263;DHT22;24054;50.128;19.730;2022-09-29T05:42:40;21.50;61.30
38263;DHT22;24054;50.128;19.730;2022-09-29T05:45:08;21.50;61.30
38263;DHT22;24054;50.128;19.730;2022-09-29T05:47:35;21.50;61.30
38263;DHT22;24054;50.128;19.730;2022-09-29T05:50:03;21.50;61.30
38263;DHT22;24054;50.128;19.730;2022-09-29T05:52:30;21.50;61.30
38263;DHT22;24054;50.128;19.730;2022-09-29T05:54:57;21.50;61.30
38263;DHT22;24054;50.128;19.730;2022-09-29T05:57:27;21.50;61.30
38263;DHT22;24054;50.128;19.730;2022-09-29T05:59:56;21.50;61.30
38263;DHT22;24054;50.128;19.730;2022-09-29T06:02:23;21.50;61.30
38263;DHT22;24054;50.128;19.730;2022-09-29T06:04:50;21.50;61.30
38263;DHT22;24054;50.128;19.730;2022-09-29T06:07:17;21.50;61.40
38263;DHT22;24054;50.128;19.730;2022-09-29T06:09:44;21.50;61.40
38263;DHT22;24054;50.128;19.730;2022-09-29T06:12:12;21.50;61.50
38263;DHT22;24054;50.128;19.730;2022-09-29T06:14:39;21.50;61.50
38263;DHT22;24054;50.128;19.730;2022-09-29T06:17:08;21.50;61.60
38263;DHT22;24054;50.128;19.730;2022-09-29T06:19:35;21.50;61.90
38263;DHT22;24054;50.128;19.730;2022-09-29T06:22:02;21.50;62.00
38263;DHT22;24054;50.128;19.730;2022-09-29T06:24:29;21.50;62.10
38263;DHT22;24054;50.128;19.730;2022-09-29T06:26:56;21.50;62.20
38263;DHT22;24054;50.128;19.730;2022-09-29T06:29:23;21.50;62.30
38263;DHT22;24054;50.128;19.730;2022-09-29T06:31:52;21.50;62.40
38263;DHT22;24054;50.128;19.730;2022-09-29T06:34:20;21.60;62.50
38263;DHT22;24054;50.128;19.730;2022-09-29T06:36:47;21.60;62.80
38263;DHT22;24054;50.128;19.730;2022-09-29T06:39:32;21.60;63.10
38263;DHT22;24054;50.128;19.730;2022-09-29T06:41:59;21.60;63.20
38263;DHT22;24054;50.128;19.730;2022-09-29T06:44:28;21.70;63.30
38263;DHT22;24054;50.128;19.730;2022-09-29T06:46:56;21.60;63.30
38263;DHT22;24054;50.128;19.730;2022-09-29T06:49:24;21.60;63.30
38263;DHT22;24054;50.128;19.730;2022-09-29T06:51:51;21.60;63.20
38263;DHT22;24054;50.128;19.730;2022-09-29T06:54:20;21.60;63.20
38263;DHT22;24054;50.128;19.730;2022-09-29T06:56:50;21.60;63.20
38263;DHT22;24054;50.128;19.730;2022-09-29T06:59:18;21.60;63.20
38263;DHT22;24054;50.128;19.730;2022-09-29T07:01:45;21.70;63.20
38263;DHT22;24054;50.128;19.730;2022-09-29T07:04:15;21.70;63.20
38263;DHT22;24054;50.128;19.730;2022-09-29T07:06:45;21.70;63.20
38263;DHT22;24054;50.128;19.730;2022-09-29T07:09:12;21.60;63.00
38263;DHT22;24054;50.128;19.730;2022-09-29T07:11:41;21.70;63.00
38263;DHT22;24054;50.128;19.730;2022-09-29T07:14:11;21.70;63.00
38263;DHT22;24054;50.128;19.730;2022-09-29T07:16:38;21.70;63.00
38263;DHT22;24054;50.128;19.730;2022-09-29T07:19:05;21.70;63.00
38263;DHT22;24054;50.128;19.730;2022-09-29T07:21:32;21.70;63.00
38263;DHT22;24054;50.128;19.730;2022-09-29T07:24:01;21.70;63.00
38263;DHT22;24054;50.128;19.730;2022-09-29T07:26:28;21.70;63.00
38263;DHT22;24054;50.128;19.730;2022-09-29T07:28:55;21.70;63.10
38263;DHT22;24054;50.128;19.730;2022-09-29T07:31:23;21.70;63.20
38263;DHT22;24054;50.128;19.730;2022-09-29T07:33:50;21.80;63.30
38263;DHT22;24054;50.128;19.730;2022-09-29T07:36:18;21.80;63.40
38263;DHT22;24054;50.128;19.730;2022-09-29T07:38:46;21.80;63.50
38263;DHT22;24054;50.128;19.730;2022-09-29T07:41:18;21.80;63.60
38263;DHT22;24054;50.128;19.730;2022-09-29T07:43:46;21.80;63.70
38263;DHT22;24054;50.128;19.730;2022-09-29T07:46:13;21.80;63.70
38263;DHT22;24054;50.128;19.730;2022-09-29T07:48:40;21.80;63.90
38263;DHT22;24054;50.128;19.730;2022-09-29T07:51:10;21.90;64.00
38263;DHT22;24054;50.128;19.730;2022-09-29T07:53:38;21.90;64.10
38263;DHT22;24054;50.128;19.730;2022-09-29T07:56:09;21.80;64.00
38263;DHT22;24054;50.128;19.730;2022-09-29T07:58:38;21.90;64.20
38263;DHT22;24054;50.128;19.730;2022-09-29T08:01:07;21.90;64.30
38263;DHT22;24054;50.128;19.730;2022-09-29T08:03:38;21.90;64.20
38263;DHT22;24054;50.128;19.730;2022-09-29T08:06:07;21.90;64.30
38263;DHT22;24054;50.128;19.730;2022-09-29T08:08:34;22.00;64.30
38263;DHT22;24054;50.128;19.730;2022-09-29T08:11:03;22.00;64.30
38263;DHT22;24054;50.128;19.730;2022-09-29T08:13:30;22.00;64.40
38263;DHT22;24054;50.128;19.730;2022-09-29T08:16:02;22.00;64.50
38263;DHT22;24054;50.128;19.730;2022-09-29T08:18:30;22.00;64.40
38263;DHT22;24054;50.128;19.730;2022-09-29T08:20:58;22.00;64.40
38263;DHT22;24054;50.128;19.730;2022-09-29T08:23:26;22.00;64.40
38263;DHT22;24054;50.128;19.730;2022-09-29T08:25:59;22.00;64.40
38263;DHT22;24054;50.128;19.730;2022-09-29T08:28:28;22.00;64.50
38263;DHT22;24054;50.128;19.730;2022-09-29T08:30:55;22.00;64.50
38263;DHT22;24054;50.128;19.730;2022-09-29T08:33:23;22.00;64.50
38263;DHT22;24054;50.128;19.730;2022-09-29T08:35:55;22.00;64.50
38263;DHT22;24054;50.128;19.730;2022-09-29T08:38:23;22.00;64.40
38263;DHT22;24054;50.128;19.730;2022-09-29T08:40:52;22.10;64.50
38263;DHT22;24054;50.128;19.730;2022-09-29T08:43:24;22.00;64.40
38263;DHT22;24054;50.128;19.730;2022-09-29T08:45:57;22.10;64.40
38263;DHT22;24054;50.128;19.730;2022-09-29T08:48:34;22.10;64.40
38263;DHT22;24054;50.128;19.730;2022-09-29T08:51:04;22.10;64.40
38263;DHT22;24054;50.128;19.730;2022-09-29T08:53:35;22.10;64.30
38263;DHT22;24054;50.128;19.730;2022-09-29T08:56:04;22.10;64.40
38263;DHT22;24054;50.128;19.730;2022-09-29T08:58:33;22.10;64.30
38263;DHT22;24054;50.128;19.730;2022-09-29T09:01:15;22.10;64.20
38263;DHT22;24054;50.128;19.730;2022-09-29T09:04:08;22.10;64.30
38263;DHT22;24054;50.128;19.730;2022-09-29T09:06:50;22.20;64.30
38263;DHT22;24054;50.128;19.730;2022-09-29T09:09:38;22.10;64.20
38263;DHT22;24054;50.128;19.730;2022-09-29T09:12:26;22.20;64.60
38263;DHT22;24054;50.128;19.730;2022-09-29T09:15:12;22.20;64.30
38263;DHT22;24054;50.128;19.730;2022-09-29T09:18:01;22.20;64.20
38263;DHT22;24054;50.128;19.730;2022-09-29T09:20:37;22.20;64.10
38263;DHT22;24054;50.128;19.730;2022-09-29T09:23:14;22.20;64.10
38263;DHT22;24054;50.128;19.730;2022-09-29T09:25:47;22.20;64.10
38263;DHT22;24054;50.128;19.730;2022-09-29T09:28:17;22.20;63.90
38263;DHT22;24054;50.128;19.730;2022-09-29T09:30:55;22.20;63.80
38263;DHT22;24054;50.128;19.730;2022-09-29T09:33:30;22.20;63.70
38263;DHT22;24054;50.128;19.730;2022-09-29T09:36:04;22.20;63.60
38263;DHT22;24054;50.128;19.730;2022-09-29T09:38:43;22.20;63.50
38263;DHT22;24054;50.128;19.730;2022-09-29T09:41:14;22.20;63.40
38263;DHT22;24054;50.128;19.730;2022-09-29T09:43:45;22.10;63.30
38263;DHT22;24054;50.128;19.730;2022-09-29T09:46:18;22.10;63.20
38263;DHT22;24054;50.128;19.730;2022-09-29T09:48:56;22.10;63.20
38263;DHT22;24054;50.128;19.730;2022-09-29T09:51:32;22.10;63.10
38263;DHT22;24054;50.128;19.730;2022-09-29T09:54:03;22.10;63.00
38263;DHT22;24054;50.128;19.730;2022-09-29T09:56:56;22.10;63.00
38263;DHT22;24054;50.128;19.730;2022-09-29T09:59:36;22.10;63.00
38263;DHT22;24054;50.128;19.730;2022-09-29T10:02:05;22.10;62.90
38263;DHT22;24054;50.128;19.730;2022-09-29T10:04:33;22.10;63.00
38263;DHT22;24054;50.128;19.730;2022-09-29T10:07:02;22.10;62.90
38263;DHT22;24054;50.128;19.730;2022-09-29T10:09:29;22.10;62.80
38263;DHT22;24054;50.128;19.730;2022-09-29T10:11:56;22.10;62.80
38263;DHT22;24054;50.128;19.730;2022-09-29T10:14:27;22.00;62.70
38263;DHT22;24054;50.128;19.730;2022-09-29T10:16:56;22.10;62.80
38263;DHT22;24054;50.128;19.730;2022-09-29T10:19:53;22.10;62.70
38263;DHT22;24054;50.128;19.730;2022-09-29T10:22:25;22.10;62.80
38263;DHT22;24054;50.128;19.730;2022-09-29T10:24:55;22.00;62.80
38263;DHT22;24054;50.128;19.730;2022-09-29T10:27:32;22.10;62.90
38263;DHT22;24054;50.128;19.730;2022-09-29T10:30:02;22.10;62.90
38263;DHT22;24054;50.128;19.730;2022-09-29T10:32:32;22.10;62.90
38263;DHT22;24054;50.128;19.730;2022-09-29T10:35:07;22.10;62.80
38263;DHT22;24054;50.128;19.730;2022-09-29T10:37:40;22.10;62.90
38263;DHT22;24054;50.128;19.730;2022-09-29T10:40:16;22.10;62.90
38263;DHT22;24054;50.128;19.730;2022-09-29T10:42:46;22.10;62.90
38263;DHT22;24054;50.128;19.730;2022-09-29T10:45:17;22.10;62.90
38263;DHT22;24054;50.128;19.730;2022-09-29T10:47:46;22.10;62.90
38263;DHT22;24054;50.128;19.730;2022-09-29T10:50:16;22.10;62.90
38263;DHT22;24054;50.128;19.730;2022-09-29T10:52:49;22.10;62.90
38263;DHT22;24054;50.128;19.730;2022-09-29T10:55:19;22.10;62.90
38263;DHT22;24054;50.128;19.730;2022-09-29T10:57:47;22.10;62.90
38263;DHT22;24054;50.128;19.730;2022-09-29T11:00:30;22.10;62.90
38263;DHT22;24054;50.128;19.730;2022-09-29T11:03:06;22.10;62.80
38263;DHT22;24054;50.128;19.730;2022-09-29T11:05:36;22.10;62.70
38263;DHT22;24054;50.128;19.730;2022-09-29T11:08:07;22.10;62.70
38263;DHT22;24054;50.128;19.730;2022-09-29T11:10:38;22.10;62.50
38263;DHT22;24054;50.128;19.730;2022-09-29T11:13:35;22.10;62.60
38263;DHT22;24054;50.128;19.730;2022-09-29T11:16:04;22.10;62.50
38263;DHT22;24054;50.128;19.730;2022-09-29T11:18:35;22.10;62.50
38263;DHT22;24054;50.128;19.730;2022-09-29T11:24:01;22.10;62.40
38263;DHT22;24054;50.128;19.730;2022-09-29T11:26:37;22.10;62.40
38263;DHT22;24054;50.128;19.730;2022-09-29T11:29:24;22.10;62.30
38263;DHT22;24054;50.128;19.730;2022-09-29T11:32:10;22.10;62.30
38263;DHT22;24054;50.128;19.730;2022-09-29T11:35:01;22.10;62.20
38263;DHT22;24054;50.128;19.730;2022-09-29T11:37:43;22.10;62.20
38263;DHT22;24054;50.128;19.730;2022-09-29T11:40:19;22.10;62.30
38263;DHT22;24054;50.128;19.730;2022-09-29T11:43:06;22.10;62.40
38263;DHT22;24054;50.128;19.730;2022-09-29T11:45:40;22.10;62.50
38263;DHT22;24054;50.128;19.730;2022-09-29T11:51:20;22.10;62.50
38263;DHT22;24054;50.128;19.730;2022-09-29T11:54:12;22.20;62.60
38263;DHT22;24054;50.128;19.730;2022-09-29T11:56:50;22.20;62.60
38263;DHT22;24054;50.128;19.730;2022-09-29T11:59:47;22.20;62.60
38263;DHT22;24054;50.128;19.730;2022-09-29T12:02:48;22.20;62.70
38263;DHT22;24054;50.128;19.730;2022-09-29T12:05:21;22.20;62.70
38263;DHT22;24054;50.128;19.730;2022-09-29T12:07:59;22.30;62.80
38263;DHT22;24054;50.128;19.730;2022-09-29T12:10:45;22.40;62.80
38263;DHT22;24054;50.128;19.730;2022-09-29T12:13:24;22.40;62.80
38263;DHT22;24054;50.128;19.730;2022-09-29T12:15:57;22.40;62.80
38263;DHT22;24054;50.128;19.730;2022-09-29T12:18:30;22.50;62.80
38263;DHT22;24054;50.128;19.730;2022-09-29T12:21:02;22.50;62.80
38263;DHT22;24054;50.128;19.730;2022-09-29T12:23:31;22.50;62.80
38263;DHT22;24054;50.128;19.730;2022-09-29T12:26:06;22.60;62.90
38263;DHT22;24054;50.128;19.730;2022-09-29T12:28:40;22.60;62.90
38263;DHT22;24054;50.128;19.730;2022-09-29T12:31:12;22.60;62.90
38263;DHT22;24054;50.128;19.730;2022-09-29T12:33:43;22.70;63.00
38263;DHT22;24054;50.128;19.730;2022-09-29T12:36:43;22.70;63.00
38263;DHT22;24054;50.128;19.730;2022-09-29T12:39:39;22.70;63.00
38263;DHT22;24054;50.128;19.730;2022-09-29T12:42:19;22.70;63.10
38263;DHT22;24054;50.128;19.730;2022-09-29T12:44:52;22.80;63.10
38263;DHT22;24054;50.128;19.730;2022-09-29T12:47:32;22.80;63.20
38263;DHT22;24054;50.128;19.730;2022-09-29T12:50:10;22.80;63.30
38263;DHT22;24054;50.128;19.730;2022-09-29T12:52:49;22.80;63.40
38263;DHT22;24054;50.128;19.730;2022-09-29T12:55:25;22.80;63.40
38263;DHT22;24054;50.128;19.730;2022-09-29T12:57:59;22.80;63.50
38263;DHT22;24054;50.128;19.730;2022-09-29T13:00:30;22.90;63.60
38263;DHT22;24054;50.128;19.730;2022-09-29T13:03:21;22.90;63.70
38263;DHT22;24054;50.128;19.730;2022-09-29T13:09:09;22.90;63.70
38263;DHT22;24054;50.128;19.730;2022-09-29T13:11:59;22.90;63.70
38263;DHT22;24054;50.128;19.730;2022-09-29T13:14:45;22.90;63.80
38263;DHT22;24054;50.128;19.730;2022-09-29T13:17:33;22.90;63.80
38263;DHT22;24054;50.128;19.730;2022-09-29T13:20:28;23.00;64.10
38263;DHT22;24054;50.128;19.730;2022-09-29T13:26:10;23.00;63.90
38263;DHT22;24054;50.128;19.730;2022-09-29T13:28:43;23.00;64.10
38263;DHT22;24054;50.128;19.730;2022-09-29T13:31:17;23.00;64.00
38263;DHT22;24054;50.128;19.730;2022-09-29T13:33:49;23.00;63.90
38263;DHT22;24054;50.128;19.730;2022-09-29T13:36:25;23.00;63.70
38263;DHT22;24054;50.128;19.730;2022-09-29T13:38:55;23.00;63.70
38263;DHT22;24054;50.128;19.730;2022-09-29T13:41:34;22.90;63.50
38263;DHT22;24054;50.128;19.730;2022-09-29T13:44:05;22.90;63.40
38263;DHT22;24054;50.128;19.730;2022-09-29T13:46:37;22.90;63.40
38263;DHT22;24054;50.128;19.730;2022-09-29T13:49:21;22.90;63.30
38263;DHT22;24054;50.128;19.730;2022-09-29T13:51:50;22.90;63.10
38263;DHT22;24054;50.128;19.730;2022-09-29T13:57:20;22.90;62.70
38263;DHT22;24054;50.128;19.730;2022-09-29T14:03:24;22.90;62.70
38263;DHT22;24054;50.128;19.730;2022-09-29T14:06:02;22.80;62.70
38263;DHT22;24054;50.128;19.730;2022-09-29T14:08:36;22.80;62.40
38263;DHT22;24054;50.128;19.730;2022-09-29T14:11:16;22.80;62.50
38263;DHT22;24054;50.128;19.730;2022-09-29T14:13:51;22.80;62.50
38263;DHT22;24054;50.128;19.730;2022-09-29T14:16:41;22.80;62.50
38263;DHT22;24054;50.128;19.730;2022-09-29T14:19:23;22.80;62.60
38263;DHT22;24054;50.128;19.730;2022-09-29T14:21:54;22.80;62.60
38263;DHT22;24054;50.128;19.730;2022-09-29T14:24:43;22.80;62.70
38263;DHT22;24054;50.128;19.730;2022-09-29T14:27:33;22.80;62.70
38263;DHT22;24054;50.128;19.730;2022-09-29T14:30:14;22.80;62.70
38263;DHT22;24054;50.128;19.730;2022-09-29T14:32:50;22.80;62.80
38263;DHT22;24054;50.128;19.730;2022-09-29T14:35:22;22.80;62.80
38263;DHT22;24054;50.128;19.730;2022-09-29T14:37:59;22.80;62.90
38263;DHT22;24054;50.128;19.730;2022-09-29T14:40:27;22.80;63.00
38263;DHT22;24054;50.128;19.730;2022-09-29T14:43:10;22.80;63.00
38263;DHT22;24054;50.128;19.730;2022-09-29T14:45:44;22.80;63.00
38263;DHT22;24054;50.128;19.730;2022-09-29T14:48:37;22.80;63.00
38263;DHT22;24054;50.128;19.730;2022-09-29T14:51:27;22.70;63.00
38263;DHT22;24054;50.128;19.730;2022-09-29T14:54:31;22.80;63.20
38263;DHT22;24054;50.128;19.730;2022-09-29T14:57:29;22.80;63.20
38263;DHT22;24054;50.128;19.730;2022-09-29T15:00:08;22.80;63.30
38263;DHT22;24054;50.128;19.730;2022-09-29T15:02:41;22.80;63.30
38263;DHT22;24054;50.128;19.730;2022-09-29T15:05:14;22.80;63.40
38263;DHT22;24054;50.128;19.730;2022-09-29T15:07:42;22.80;61.70
38263;DHT22;24054;50.128;19.730;2022-09-29T15:10:26;22.60;57.90
38263;DHT22;24054;50.128;19.730;2022-09-29T15:13:16;22.50;58.40
38263;DHT22;24054;50.128;19.730;2022-09-29T15:15:47;22.40;58.70
38263;DHT22;24054;50.128;19.730;2022-09-29T15:21:16;22.30;58.00
38263;DHT22;24054;50.128;19.730;2022-09-29T15:24:00;22.30;58.30
38263;DHT22;24054;50.128;19.730;2022-09-29T15:26:31;22.20;57.90
38263;DHT22;24054;50.128;19.730;2022-09-29T15:29:00;22.20;58.10
38263;DHT22;24054;50.128;19.730;2022-09-29T15:31:31;22.20;58.20
38263;DHT22;24054;50.128;19.730;2022-09-29T15:34:00;22.20;58.10
38263;DHT22;24054;50.128;19.730;2022-09-29T15:36:31;22.20;58.00
38263;DHT22;24054;50.128;19.730;2022-09-29T15:39:01;22.20;58.30
38263;DHT22;24054;50.128;19.730;2022-09-29T15:41:32;22.20;58.30
38263;DHT22;24054;50.128;19.730;2022-09-29T15:44:02;22.20;58.30
38263;DHT22;24054;50.128;19.730;2022-09-29T15:46:36;22.20;58.50
38263;DHT22;24054;50.128;19.730;2022-09-29T15:49:15;22.20;58.50
38263;DHT22;24054;50.128;19.730;2022-09-29T15:51:53;22.20;58.60
38263;DHT22;24054;50.128;19.730;2022-09-29T15:54:21;22.20;58.60
38263;DHT22;24054;50.128;19.730;2022-09-29T15:56:50;22.20;58.80
38263;DHT22;24054;50.128;19.730;2022-09-29T15:59:39;22.20;58.90
38263;DHT22;24054;50.128;19.730;2022-09-29T16:02:16;22.20;59.00
38263;DHT22;24054;50.128;19.730;2022-09-29T16:04:47;22.20;59.20
38263;DHT22;24054;50.128;19.730;2022-09-29T16:07:19;22.20;59.20
38263;DHT22;24054;50.128;19.730;2022-09-29T16:09:48;22.20;59.40
38263;DHT22;24054;50.128;19.730;2022-09-29T16:12:18;22.20;59.40